createdAt,value
2022-12-14T00:01:29.853Z,66.88
2022-12-14T00:04:19.151Z,66.53
2022-12-14T00:07:09.863Z,66.04
2022-12-14T00:09:59.126Z,66.29
2022-12-14T00:12:48.364Z,65.72
2022-12-14T00:15:39.083Z,65.89
2022-12-14T00:18:29.257Z,66.44
2022-12-14T00:21:19.193Z,66.59
2022-12-14T00:24:10.490Z,66.67
2022-12-14T00:26:59.808Z,67.43
2022-12-14T00:29:49.197Z,67.23
2022-12-14T00:32:38.429Z,67.33
2022-12-14T00:35:27.797Z,67.12
2022-12-14T00:38:17.101Z,67.61
2022-12-14T00:41:09.309Z,67.69
2022-12-14T00:43:59.071Z,67.17
2022-12-14T00:46:48.448Z,67.53
2022-12-14T00:49:37.945Z,67.07
2022-12-14T00:52:27.819Z,67.14
2022-12-14T00:55:17.387Z,67.29
2022-12-14T00:58:08.347Z,67.57
2022-12-14T01:01:02.228Z,67.85
2022-12-14T01:04:11.779Z,67.76
2022-12-14T01:07:01.410Z,68.55
2022-12-14T01:09:50.697Z,68.69
2022-12-14T01:12:40.055Z,68.67
2022-12-14T01:15:31.020Z,69.02
2022-12-14T01:18:20.424Z,68.33
2022-12-14T01:21:15.970Z,69.23
2022-12-14T01:24:06.768Z,68.48
2022-12-14T01:26:55.944Z,68.17
2022-12-14T01:29:45.285Z,68.75
2022-12-14T01:32:36.343Z,68.31
2022-12-14T01:35:25.731Z,67.60
2022-12-14T01:38:15.095Z,68.29
2022-12-14T01:41:05.122Z,68.13
2022-12-14T01:43:56.464Z,67.28
2022-12-14T01:46:49.895Z,67.62
2022-12-14T01:49:42.384Z,67.73
2022-12-14T01:52:39.927Z,67.34
2022-12-14T01:55:34.249Z,66.63
2022-12-14T01:58:25.750Z,67.33
2022-12-14T02:01:16.414Z,66.66
2022-12-14T02:04:06.605Z,67.87
2022-12-14T02:07:01.126Z,67.56
2022-12-14T02:09:52.662Z,67.41
2022-12-14T02:12:46.686Z,66.61
2022-12-14T02:15:36.124Z,66.78
2022-12-14T02:18:28.054Z,66.97
2022-12-14T02:21:26.172Z,66.35
2022-12-14T02:24:49.531Z,66.76
2022-12-14T02:28:17.167Z,66.75
2022-12-14T02:31:16.535Z,67.84
2022-12-14T02:34:13.111Z,68.18
2022-12-14T02:37:12.299Z,67.99
2022-12-14T02:40:15.153Z,67.70
2022-12-14T02:43:18.686Z,67.84
2022-12-14T02:46:22.472Z,68.23
2022-12-14T02:49:19.361Z,68.69
2022-12-14T02:52:17.387Z,68.99
2022-12-14T02:55:16.179Z,69.44
2022-12-14T02:58:11.675Z,69.30
2022-12-14T03:01:01.519Z,69.37
2022-12-14T03:03:52.691Z,69.16
2022-12-14T03:06:59.256Z,69.51
2022-12-14T03:09:48.531Z,68.72
2022-12-14T03:12:42.654Z,69.90
2022-12-14T03:15:33.420Z,70.10
2022-12-14T03:18:25.361Z,69.61
2022-12-14T03:21:22.807Z,69.49
2022-12-14T03:24:16.980Z,70.38
2022-12-14T03:27:13.252Z,69.77
2022-12-14T03:30:09.069Z,69.76
2022-12-14T03:33:05.498Z,70.55
2022-12-14T03:36:01.150Z,70.66
2022-12-14T03:38:55.013Z,70.28
2022-12-14T03:41:52.527Z,70.54
2022-12-14T03:44:50.231Z,70.40
2022-12-14T03:48:00.678Z,69.25
2022-12-14T03:50:54.382Z,69.48
2022-12-14T03:53:51.365Z,69.05
2022-12-14T03:56:53.384Z,69.13
2022-12-14T03:59:50.028Z,68.74
2022-12-14T04:02:47.931Z,69.34
2022-12-14T04:05:48.936Z,69.19
2022-12-14T04:08:46.087Z,68.72
2022-12-14T04:12:01.836Z,69.73
2022-12-14T04:15:22.361Z,69.47
2022-12-14T04:18:34.424Z,68.67
2022-12-14T04:21:33.893Z,69.19
2022-12-14T04:24:50.650Z,68.94
2022-12-14T04:27:49.329Z,69.00
2022-12-14T04:30:41.133Z,68.78
2022-12-14T04:33:48.490Z,68.58
2022-12-14T04:36:44.069Z,68.62
2022-12-14T04:39:42.431Z,68.66
2022-12-14T04:42:35.798Z,68.59
2022-12-14T04:45:31.111Z,68.00
2022-12-14T04:48:27.138Z,67.17
2022-12-14T04:51:33.630Z,67.87
2022-12-14T04:54:29.977Z,68.00
2022-12-14T04:57:27.168Z,67.74
2022-12-14T05:00:17.095Z,68.60
2022-12-14T05:03:23.130Z,68.75
2022-12-14T05:06:23.697Z,69.35
2022-12-14T05:09:19.627Z,69.01
2022-12-14T05:12:17.273Z,68.91
2022-12-14T05:15:11.853Z,68.90
2022-12-14T05:18:05.603Z,68.56
2022-12-14T05:20:56.300Z,68.55
2022-12-14T05:23:45.612Z,68.76
2022-12-14T05:26:35.102Z,69.51
2022-12-14T05:29:24.443Z,69.09
2022-12-14T05:32:14.635Z,69.63
2022-12-14T05:35:05.119Z,69.57
2022-12-14T05:37:55.859Z,69.94
2022-12-14T05:40:45.082Z,70.44
2022-12-14T05:43:34.497Z,70.44
2022-12-14T05:46:23.920Z,70.15
2022-12-14T05:49:13.416Z,70.70
2022-12-14T05:52:02.863Z,70.74
2022-12-14T05:54:55.532Z,70.84
2022-12-14T05:57:46.694Z,71.30
2022-12-14T06:00:36.039Z,71.91
2022-12-14T06:03:25.942Z,71.63
2022-12-14T06:06:16.379Z,72.10
2022-12-14T06:09:07.950Z,71.76
2022-12-14T06:11:58.660Z,71.78
2022-12-14T06:14:48.018Z,72.13
2022-12-14T06:17:37.643Z,72.41
2022-12-14T06:20:27.446Z,72.14
2022-12-14T06:23:16.962Z,72.35
2022-12-14T06:26:06.916Z,72.29
2022-12-14T06:28:58.875Z,72.57
2022-12-14T06:31:49.284Z,72.24
2022-12-14T06:34:42.147Z,72.54
2022-12-14T06:37:33.044Z,72.93
2022-12-14T06:40:22.581Z,73.28
2022-12-14T06:43:12.155Z,73.06
2022-12-14T06:46:02.880Z,72.94
2022-12-14T06:48:54.028Z,73.53
2022-12-14T06:51:44.163Z,73.09
2022-12-14T06:54:33.748Z,73.56
2022-12-14T06:57:23.066Z,72.22
2022-12-14T07:00:13.530Z,73.07
2022-12-14T07:03:04.318Z,71.51
2022-12-14T07:05:58.415Z,71.23
2022-12-14T07:08:48.399Z,69.63
2022-12-14T07:11:37.798Z,70.31
2022-12-14T07:14:27.079Z,68.65
2022-12-14T07:17:16.435Z,68.59
2022-12-14T07:20:09.837Z,67.67
2022-12-14T07:22:59.144Z,68.53
2022-12-14T07:25:49.291Z,68.53
2022-12-14T07:28:40.762Z,68.48
2022-12-14T07:31:31.260Z,67.87
2022-12-14T07:34:20.510Z,68.18
2022-12-14T07:37:11.314Z,67.13
2022-12-14T07:40:00.569Z,68.29
2022-12-14T07:42:50.640Z,67.99
2022-12-14T07:45:41.327Z,68.14
2022-12-14T07:48:30.854Z,67.27
2022-12-14T07:51:24.081Z,66.97
2022-12-14T07:54:15.525Z,68.02
2022-12-14T07:57:05.015Z,67.90
2022-12-14T07:59:57.463Z,68.32
2022-12-14T08:02:47.028Z,68.10
2022-12-14T08:05:40.072Z,68.16
2022-12-14T08:08:29.351Z,68.07
2022-12-14T08:11:22.340Z,68.07
2022-12-14T08:14:17.214Z,68.20
2022-12-14T08:17:06.455Z,68.30
2022-12-14T08:19:55.726Z,68.47
2022-12-14T08:22:45.307Z,68.78
2022-12-14T08:25:34.879Z,68.23
2022-12-14T08:28:27.155Z,68.85
2022-12-14T08:31:18.654Z,68.50
2022-12-14T08:34:09.775Z,68.56
2022-12-14T08:36:59.168Z,68.69
2022-12-14T08:39:49.637Z,68.16
2022-12-14T08:42:39.116Z,68.32
2022-12-14T08:45:30.031Z,67.90
2022-12-14T08:48:19.542Z,68.42
2022-12-14T08:51:11.326Z,68.66
2022-12-14T08:54:01.964Z,68.68
2022-12-14T08:56:52.083Z,69.04
2022-12-14T09:02:54.254Z,69.04
2022-12-14T09:05:43.721Z,69.55
2022-12-14T09:08:33.389Z,69.88
2022-12-14T09:11:23.685Z,69.89
2022-12-14T09:14:13.063Z,69.75
2022-12-14T09:17:02.935Z,69.15
2022-12-14T09:19:53.602Z,69.74
2022-12-14T09:22:42.933Z,68.82
2022-12-14T09:25:32.263Z,69.76
2022-12-14T09:28:21.651Z,68.58
2022-12-14T09:31:17.184Z,69.05
2022-12-14T09:34:06.757Z,68.51
2022-12-14T09:36:57.535Z,68.66
2022-12-14T09:39:46.780Z,67.86
2022-12-14T09:42:54.423Z,67.30
2022-12-14T09:45:52.139Z,67.28
2022-12-14T09:48:43.982Z,67.63
2022-12-14T09:51:38.175Z,67.69
2022-12-14T09:54:33.359Z,68.27
2022-12-14T09:57:41.154Z,67.95
2022-12-14T10:00:38.665Z,68.73
2022-12-14T10:03:51.552Z,68.11
2022-12-14T10:06:48.112Z,69.22
2022-12-14T10:09:48.725Z,68.51
2022-12-14T10:12:50.889Z,68.86
2022-12-14T10:15:51.937Z,69.40
2022-12-14T10:19:22.774Z,68.84
2022-12-14T10:22:17.453Z,69.49
2022-12-14T10:25:14.659Z,69.18
2022-12-14T10:28:11.854Z,69.84
2022-12-14T10:31:03.827Z,70.12
2022-12-14T10:33:54.333Z,69.82
2022-12-14T10:36:55.992Z,70.10
2022-12-14T10:39:59.305Z,69.38
2022-12-14T10:42:56.988Z,68.89
2022-12-14T10:45:55.878Z,69.51
2022-12-14T10:48:54.709Z,67.94
2022-12-14T10:51:48.839Z,69.04
2022-12-14T10:54:46.228Z,68.66
2022-12-14T10:57:35.441Z,68.87
2022-12-14T11:00:26.218Z,68.62
2022-12-14T11:03:16.891Z,68.13
2022-12-14T11:06:15.826Z,69.04
2022-12-14T11:09:23.211Z,68.74
2022-12-14T11:12:21.976Z,68.11
2022-12-14T11:15:28.785Z,67.98
2022-12-14T11:18:32.359Z,67.67
2022-12-14T11:21:32.432Z,68.28
2022-12-14T11:24:26.805Z,67.77
2022-12-14T11:27:21.949Z,67.24
2022-12-14T11:30:18.012Z,67.32
2022-12-14T11:33:17.320Z,66.75
2022-12-14T11:36:07.817Z,67.45
2022-12-14T11:38:58.466Z,66.97
2022-12-14T11:41:51.085Z,67.10
2022-12-14T11:44:40.393Z,67.17
2022-12-14T11:47:29.990Z,65.29
2022-12-14T11:50:32.761Z,64.63
2022-12-14T11:53:24.382Z,65.39
2022-12-14T11:56:18.300Z,65.35
2022-12-14T11:59:16.753Z,64.97
2022-12-14T12:02:20.622Z,64.56
2022-12-14T12:05:16.020Z,61.79
2022-12-14T12:08:16.696Z,63.39
2022-12-14T12:11:16.074Z,62.82
2022-12-14T12:14:23.952Z,62.87
2022-12-14T12:17:20.583Z,63.44
2022-12-14T12:20:34.837Z,62.60
2022-12-14T12:23:32.114Z,62.54
2022-12-14T12:26:27.136Z,63.79
2022-12-14T12:29:27.183Z,63.02
2022-12-14T12:32:24.800Z,62.41
2022-12-14T12:35:21.800Z,63.46
2022-12-14T12:38:23.354Z,62.23
2022-12-14T12:41:33.181Z,61.65
2022-12-14T12:44:39.636Z,60.80
2022-12-14T12:47:46.159Z,61.10
2022-12-14T12:50:43.802Z,61.09
2022-12-14T12:53:45.690Z,61.73
2022-12-14T12:56:44.854Z,61.93
2022-12-14T12:59:42.074Z,60.77
2022-12-14T13:02:36.053Z,60.79
2022-12-14T13:05:46.319Z,59.19
2022-12-14T13:08:41.754Z,56.47
2022-12-14T13:11:37.225Z,58.03
2022-12-14T13:14:33.408Z,57.60
2022-12-14T13:17:35.010Z,58.96
2022-12-14T13:20:28.474Z,58.16
2022-12-14T13:23:43.616Z,57.67
2022-12-14T13:26:58.932Z,58.08
2022-12-14T13:30:07.334Z,55.91
2022-12-14T13:33:35.621Z,55.52
2022-12-14T13:37:43.251Z,55.92
2022-12-14T13:41:03.912Z,55.57
2022-12-14T13:44:40.170Z,54.14
2022-12-14T13:47:40.978Z,53.97
2022-12-14T13:50:36.172Z,54.30
2022-12-14T13:53:32.755Z,54.92
2022-12-14T13:56:30.955Z,52.64
2022-12-14T13:59:33.478Z,53.59
2022-12-14T14:02:43.269Z,53.49
2022-12-14T14:05:47.052Z,53.52
2022-12-14T14:08:42.050Z,53.97
2022-12-14T14:11:58.627Z,53.51
2022-12-14T14:14:53.719Z,53.00
2022-12-14T14:17:47.475Z,52.03
2022-12-14T14:20:42.031Z,52.13
2022-12-14T14:23:38.190Z,52.81
2022-12-14T14:26:30.795Z,52.83
2022-12-14T14:29:25.984Z,51.92
2022-12-14T14:32:42.559Z,52.76
2022-12-14T14:35:38.596Z,53.01
2022-12-14T14:38:32.579Z,52.52
2022-12-14T14:41:26.575Z,53.28
2022-12-14T14:44:26.108Z,53.37
2022-12-14T14:47:24.197Z,53.52
2022-12-14T14:50:25.595Z,53.42
2022-12-14T14:53:30.865Z,53.44
2022-12-14T14:56:37.220Z,53.20
2022-12-14T14:59:50.942Z,52.63
2022-12-14T15:02:43.120Z,52.76
2022-12-14T15:05:44.485Z,52.55
2022-12-14T15:08:41.872Z,55.07
2022-12-14T15:11:43.999Z,56.49
2022-12-14T15:14:43.276Z,57.24
2022-12-14T15:17:36.330Z,57.89
2022-12-14T15:20:29.503Z,58.27
2022-12-14T15:23:18.907Z,59.06
2022-12-14T15:26:17.443Z,59.28
2022-12-14T15:29:06.943Z,59.86
2022-12-14T15:32:00.737Z,61.07
2022-12-14T15:34:56.997Z,61.74
2022-12-14T15:37:53.551Z,61.80
2022-12-14T15:40:56.637Z,62.37
2022-12-14T15:43:53.726Z,63.08
2022-12-14T15:46:56.352Z,63.10
2022-12-14T15:49:46.513Z,63.43
2022-12-14T15:52:36.144Z,63.82
2022-12-14T15:55:33.446Z,63.10
2022-12-14T15:58:30.052Z,62.96
2022-12-14T16:01:26.227Z,62.95
2022-12-14T16:04:20.744Z,63.33
2022-12-14T16:07:19.972Z,62.49
2022-12-14T16:10:23.912Z,63.04
2022-12-14T16:13:21.832Z,63.01
2022-12-14T16:16:14.688Z,63.34
2022-12-14T16:19:26.464Z,62.21
2022-12-14T16:22:23.233Z,63.32
2022-12-14T16:25:20.805Z,63.44
2022-12-14T16:28:29.079Z,62.92
2022-12-14T16:31:21.683Z,63.29
2022-12-14T16:34:18.736Z,63.33
2022-12-14T16:37:31.565Z,63.32
2022-12-14T16:40:35.496Z,62.87
2022-12-14T16:43:33.313Z,63.64
2022-12-14T16:46:23.296Z,63.06
2022-12-14T16:49:23.263Z,63.29
2022-12-14T16:52:20.271Z,62.56
2022-12-14T16:55:14.309Z,62.54
2022-12-14T16:58:03.838Z,61.76
2022-12-14T17:01:01.087Z,62.34
2022-12-14T17:03:59.251Z,61.50
2022-12-14T17:06:53.359Z,62.08
2022-12-14T17:09:42.900Z,61.07
2022-12-14T17:12:32.432Z,61.27
2022-12-14T17:15:24.985Z,61.93
2022-12-14T17:18:14.450Z,61.50
2022-12-14T17:21:04.400Z,61.82
2022-12-14T17:23:57.104Z,62.21
2022-12-14T17:26:47.560Z,62.08
2022-12-14T17:29:36.989Z,61.87
2022-12-14T17:32:31.423Z,62.24
2022-12-14T17:35:24.302Z,62.03
2022-12-14T17:38:16.325Z,62.35
2022-12-14T17:41:08.357Z,62.16
2022-12-14T17:43:58.581Z,62.48
2022-12-14T17:46:50.035Z,62.21
2022-12-14T17:49:39.497Z,61.88
2022-12-14T17:52:32.958Z,62.21
2022-12-14T17:55:25.577Z,62.52
2022-12-14T17:58:16.840Z,62.92
2022-12-14T18:01:07.601Z,62.08
2022-12-14T18:03:57.143Z,62.45
2022-12-14T18:06:46.635Z,62.96
2022-12-14T18:09:35.910Z,62.71
2022-12-14T18:12:25.938Z,63.31
2022-12-14T18:15:23.026Z,63.43
2022-12-14T18:18:12.474Z,63.52
2022-12-14T18:21:04.836Z,63.48
2022-12-14T18:23:54.248Z,63.30
2022-12-14T18:26:44.130Z,63.55
2022-12-14T18:29:33.546Z,64.03
2022-12-14T18:32:24.244Z,63.79
2022-12-14T18:35:19.798Z,63.89
2022-12-14T18:38:09.251Z,64.23
2022-12-14T18:41:01.866Z,64.45
2022-12-14T18:43:51.462Z,64.69
2022-12-14T18:46:40.884Z,65.38
2022-12-14T18:49:31.613Z,65.46
2022-12-14T18:52:20.881Z,65.68
2022-12-14T18:55:18.380Z,65.56
2022-12-14T18:58:07.714Z,65.91
2022-12-14T19:01:00.297Z,66.58
2022-12-14T19:03:50.758Z,66.24
2022-12-14T19:06:44.940Z,67.47
2022-12-14T19:09:34.908Z,66.58
2022-12-14T19:12:24.259Z,67.04
2022-12-14T19:15:17.515Z,67.13
2022-12-14T19:18:06.837Z,67.40
2022-12-14T19:20:56.264Z,67.42
2022-12-14T19:23:47.098Z,66.96
2022-12-14T19:26:39.036Z,67.91
2022-12-14T19:29:28.712Z,67.17
2022-12-14T19:32:18.010Z,67.65
2022-12-14T19:35:08.028Z,67.65
2022-12-14T19:37:57.343Z,67.37
2022-12-14T19:41:00.811Z,67.92
2022-12-14T19:43:50.273Z,67.45
2022-12-14T19:46:39.614Z,67.47
2022-12-14T19:49:28.942Z,67.89
2022-12-14T19:52:18.231Z,67.57
2022-12-14T19:55:08.307Z,67.70
2022-12-14T19:57:59.017Z,67.46
2022-12-14T20:00:48.861Z,67.13
2022-12-14T20:03:39.071Z,68.01
2022-12-14T20:06:28.735Z,68.02
2022-12-14T20:09:19.532Z,68.34
2022-12-14T20:12:11.518Z,68.50
2022-12-14T20:15:02.256Z,69.35
2022-12-14T20:17:52.120Z,69.16
2022-12-14T20:20:41.533Z,69.57
2022-12-14T20:23:31.579Z,69.54
2022-12-14T20:26:23.192Z,69.27
2022-12-14T20:29:14.825Z,69.11
2022-12-14T20:32:05.983Z,69.14
2022-12-14T20:34:55.473Z,70.01
2022-12-14T20:37:44.847Z,69.91
2022-12-14T20:40:38.425Z,69.76
2022-12-14T20:43:29.108Z,70.18
2022-12-14T20:46:31.436Z,70.88
2022-12-14T20:49:23.694Z,70.96
2022-12-14T20:52:13.148Z,70.83
2022-12-14T20:55:02.423Z,71.01
2022-12-14T20:57:51.881Z,70.92
2022-12-14T21:00:41.357Z,71.19
2022-12-14T21:03:31.444Z,70.98
2022-12-14T21:06:24.573Z,71.21
2022-12-14T21:09:13.995Z,71.17
2022-12-14T21:12:20.887Z,71.49
2022-12-14T21:15:10.795Z,71.79
2022-12-14T21:18:00.097Z,72.18
2022-12-14T21:20:49.388Z,71.72
2022-12-14T21:23:42.652Z,72.18
2022-12-14T21:26:33.253Z,72.36
2022-12-14T21:29:23.220Z,72.61
2022-12-14T21:32:12.754Z,72.65
2022-12-14T21:35:02.240Z,72.60
2022-12-14T21:37:51.514Z,73.28
2022-12-14T21:40:59.813Z,72.65
2022-12-14T21:43:49.350Z,72.78
2022-12-14T21:46:39.103Z,72.93
2022-12-14T21:49:28.545Z,73.56
2022-12-14T21:52:21.908Z,73.03
2022-12-14T21:55:11.406Z,73.51
2022-12-14T21:58:16.303Z,73.29
2022-12-14T22:01:08.656Z,73.23
2022-12-14T22:03:57.909Z,73.71
2022-12-14T22:06:47.449Z,73.65
2022-12-14T22:09:36.736Z,74.20
2022-12-14T22:12:26.279Z,73.90
2022-12-14T22:15:17.332Z,74.10
2022-12-14T22:18:07.173Z,74.13
2022-12-14T22:21:04.616Z,74.06
2022-12-14T22:23:54.916Z,74.29
2022-12-14T22:26:45.339Z,73.97
2022-12-14T22:29:34.998Z,74.57
2022-12-14T22:32:26.232Z,74.71
2022-12-14T22:35:15.734Z,74.96
2022-12-14T22:38:05.112Z,74.88
2022-12-14T22:40:54.850Z,75.00
2022-12-14T22:43:45.685Z,75.01
2022-12-14T22:46:35.591Z,75.13
2022-12-14T22:49:26.389Z,75.51
2022-12-14T22:52:18.610Z,75.24
2022-12-14T22:55:12.916Z,75.39
2022-12-14T22:58:02.833Z,75.38
2022-12-14T23:00:54.131Z,75.52
2022-12-14T23:03:44.293Z,75.35
2022-12-14T23:06:35.705Z,76.01
2022-12-14T23:09:42.625Z,76.25
2022-12-14T23:12:49.609Z,76.01
2022-12-14T23:15:56.646Z,76.96
2022-12-14T23:19:03.662Z,76.58
2022-12-14T23:22:11.660Z,76.77
2022-12-14T23:25:18.237Z,76.34
2022-12-14T23:28:25.528Z,76.94
2022-12-14T23:31:31.988Z,76.67
2022-12-14T23:34:38.675Z,76.97
2022-12-14T23:37:47.137Z,76.74
2022-12-14T23:40:54.080Z,76.54
2022-12-14T23:44:01.035Z,76.77
2022-12-14T23:47:08.130Z,76.66
2022-12-14T23:50:14.565Z,76.72
2022-12-14T23:53:25.370Z,76.66
2022-12-14T23:56:32.312Z,76.50
2022-12-14T23:59:39.707Z,77.09
